Reykjavik Airport

BIRK | RKV

Reykjavik , Capital Region , Iceland

Saturday, September 21st, 2019 | 11:33

Weather

BIRK 211100Z 06010KT 030V110 9999 VCSH SCT015 BKN021 BKN050 12/09 Q1001

Charts

No Charts Available

Gates

89 Available

Runways

2 Available

Events

No events for this airport


New event